createdAt,value
2018-12-31T00:03:05.503Z,4.14
2018-12-31T00:06:13.485Z,4.19
2018-12-31T00:09:20.381Z,4.14
2018-12-31T00:12:27.893Z,4.14
2018-12-31T00:15:34.673Z,4.15
2018-12-31T00:18:41.377Z,4.14
2018-12-31T00:21:48.396Z,4.16
2018-12-31T00:24:55.332Z,4.17
2018-12-31T00:28:02.399Z,4.17
2018-12-31T00:31:09.327Z,4.14
2018-12-31T00:34:17.131Z,4.14
2018-12-31T00:37:27.207Z,4.17
2018-12-31T00:40:33.863Z,4.16
2018-12-31T00:43:41.054Z,4.17
2018-12-31T00:46:48.033Z,4.18
2018-12-31T00:49:54.742Z,4.18
2018-12-31T00:53:01.675Z,4.16
2018-12-31T00:56:08.385Z,4.15
2018-12-31T00:59:15.356Z,4.14
2018-12-31T01:02:22.595Z,4.14
2018-12-31T01:05:30.985Z,4.12
2018-12-31T01:08:38.655Z,4.15
2018-12-31T01:11:45.595Z,4.15
2018-12-31T01:14:52.344Z,4.15
2018-12-31T01:17:59.058Z,4.14
2018-12-31T01:21:06.047Z,4.15
2018-12-31T01:24:13.787Z,4.15
2018-12-31T01:27:21.520Z,4.15
2018-12-31T01:30:28.496Z,4.17
2018-12-31T01:33:35.226Z,4.17
2018-12-31T01:36:44.014Z,4.15
2018-12-31T01:39:50.806Z,4.14
2018-12-31T01:42:57.768Z,4.14
2018-12-31T01:46:04.487Z,4.15
2018-12-31T01:49:11.468Z,4.15
2018-12-31T01:52:18.174Z,4.13
2018-12-31T01:55:25.131Z,4.15
2018-12-31T01:58:32.117Z,4.11
2018-12-31T02:01:39.003Z,4.12
2018-12-31T02:04:46.072Z,4.15
2018-12-31T02:07:53.547Z,4.16
2018-12-31T02:11:00.491Z,4.14
2018-12-31T02:14:07.419Z,4.17
2018-12-31T02:17:14.358Z,4.18
2018-12-31T02:20:21.538Z,4.18
2018-12-31T02:23:28.896Z,4.17
2018-12-31T02:26:36.065Z,4.18
2018-12-31T02:29:43.114Z,4.13
2018-12-31T02:32:49.802Z,4.16
2018-12-31T02:35:56.791Z,4.12
2018-12-31T02:39:04.733Z,4.08
2018-12-31T02:42:11.703Z,4.12
2018-12-31T02:45:18.671Z,4.11
2018-12-31T02:48:26.298Z,4.09
2018-12-31T02:51:33.196Z,4.07
2018-12-31T02:54:40.108Z,4.07
2018-12-31T02:57:47.331Z,4.07
2018-12-31T03:00:54.336Z,4.09
2018-12-31T03:04:01.003Z,4.06
2018-12-31T03:07:08.004Z,4.04
2018-12-31T03:10:15.276Z,4.03
2018-12-31T03:13:22.635Z,4.06
2018-12-31T03:16:30.475Z,4.05
2018-12-31T03:19:37.442Z,4.08
2018-12-31T03:22:44.345Z,4.09
2018-12-31T03:25:51.260Z,4.12
2018-12-31T03:28:58.177Z,4.10
2018-12-31T03:32:05.394Z,4.02
2018-12-31T03:35:12.627Z,4.00
2018-12-31T03:38:20.277Z,4.02
2018-12-31T03:41:27.260Z,4.05
2018-12-31T03:44:34.183Z,4.05
2018-12-31T03:47:41.095Z,4.07
2018-12-31T03:50:48.289Z,4.06
2018-12-31T03:53:55.250Z,4.06
2018-12-31T03:57:02.202Z,4.04
2018-12-31T04:00:08.936Z,4.09
2018-12-31T04:03:15.813Z,4.03
2018-12-31T04:06:22.857Z,4.03
2018-12-31T04:09:30.098Z,4.09
2018-12-31T04:12:37.430Z,4.12
2018-12-31T04:15:44.370Z,4.08
2018-12-31T04:18:51.265Z,4.10
2018-12-31T04:21:58.176Z,4.11
2018-12-31T04:25:08.191Z,4.09
2018-12-31T04:28:17.129Z,4.05
2018-12-31T04:31:24.588Z,4.11
2018-12-31T04:34:32.019Z,4.10
2018-12-31T04:37:39.113Z,4.08
2018-12-31T04:40:46.037Z,4.10
2018-12-31T04:43:52.934Z,4.12
2018-12-31T04:47:00.268Z,4.02
2018-12-31T04:50:07.346Z,4.00
2018-12-31T04:53:14.223Z,4.01
2018-12-31T04:56:21.114Z,4.03
2018-12-31T04:59:28.053Z,4.03
2018-12-31T05:02:35.683Z,3.99
2018-12-31T05:05:43.510Z,4.02
2018-12-31T05:08:50.489Z,4.08
2018-12-31T05:11:57.380Z,4.08
2018-12-31T05:15:05.726Z,4.02
2018-12-31T05:18:12.505Z,3.96
2018-12-31T05:21:19.182Z,3.97
2018-12-31T05:24:26.151Z,4.04
2018-12-31T05:27:35.764Z,3.99
2018-12-31T05:30:42.829Z,3.95
2018-12-31T05:33:52.887Z,3.98
2018-12-31T05:36:59.811Z,3.94
2018-12-31T05:40:07.130Z,3.95
2018-12-31T05:43:14.166Z,4.00
2018-12-31T05:46:20.823Z,3.98
2018-12-31T05:49:27.791Z,4.06
2018-12-31T05:52:35.093Z,4.03
2018-12-31T05:55:41.998Z,4.04
2018-12-31T05:58:49.502Z,4.07
2018-12-31T06:01:56.465Z,4.08
2018-12-31T06:05:03.383Z,3.99
2018-12-31T06:08:10.309Z,4.02
2018-12-31T06:11:17.198Z,4.04
2018-12-31T06:14:24.069Z,4.08
2018-12-31T06:17:32.975Z,3.99
2018-12-31T06:20:39.861Z,4.02
2018-12-31T06:23:47.501Z,4.01
2018-12-31T06:26:54.482Z,4.05
2018-12-31T06:30:02.270Z,4.01
2018-12-31T06:33:09.511Z,3.97
2018-12-31T06:36:16.490Z,3.96
2018-12-31T06:39:23.520Z,3.91
2018-12-31T06:42:30.259Z,3.92
2018-12-31T06:45:37.752Z,3.97
2018-12-31T06:48:44.495Z,3.99
2018-12-31T06:51:52.172Z,3.98
2018-12-31T06:54:59.109Z,4.03
2018-12-31T06:58:06.045Z,4.03
2018-12-31T07:01:13.124Z,4.01
2018-12-31T07:04:20.103Z,4.01
2018-12-31T07:07:27.107Z,4.03
2018-12-31T07:10:33.788Z,4.01
2018-12-31T07:13:40.704Z,4.03
2018-12-31T07:16:47.689Z,4.03
2018-12-31T07:19:54.769Z,4.07
2018-12-31T07:23:01.620Z,4.06
2018-12-31T07:26:08.559Z,4.07
2018-12-31T07:29:15.858Z,4.10
2018-12-31T07:32:22.795Z,4.13
2018-12-31T07:35:29.527Z,4.11
2018-12-31T07:38:36.633Z,4.11
2018-12-31T07:41:43.322Z,4.17
2018-12-31T07:44:50.256Z,4.18
2018-12-31T07:47:56.960Z,4.21
2018-12-31T07:51:03.903Z,4.21
2018-12-31T07:54:10.780Z,4.22
2018-12-31T07:57:17.506Z,4.19
2018-12-31T08:00:24.517Z,4.19
2018-12-31T08:03:31.193Z,4.23
2018-12-31T08:06:41.404Z,4.25
2018-12-31T08:09:48.270Z,4.24
2018-12-31T08:12:55.176Z,4.24
2018-12-31T08:16:02.074Z,4.29
2018-12-31T08:19:08.954Z,4.24
2018-12-31T08:22:16.439Z,4.23
2018-12-31T08:25:26.433Z,4.25
2018-12-31T08:28:33.317Z,4.27
2018-12-31T08:31:40.673Z,4.26
2018-12-31T08:34:47.630Z,4.26
2018-12-31T08:37:56.425Z,4.27
2018-12-31T08:41:03.347Z,4.26
2018-12-31T08:44:10.071Z,4.26
2018-12-31T08:47:18.606Z,4.33
2018-12-31T08:50:26.207Z,4.33
2018-12-31T08:53:33.144Z,4.31
2018-12-31T08:56:40.020Z,4.31
2018-12-31T08:59:46.893Z,4.32
2018-12-31T09:02:53.727Z,4.33
2018-12-31T09:06:21.489Z,4.34
2018-12-31T09:09:28.684Z,4.33
2018-12-31T09:12:35.628Z,4.35
2018-12-31T09:15:42.350Z,4.34
2018-12-31T09:18:49.294Z,4.33
2018-12-31T09:21:56.023Z,4.35
2018-12-31T09:25:03.300Z,4.34
2018-12-31T09:28:10.246Z,4.37
2018-12-31T09:31:19.674Z,4.39
2018-12-31T09:34:26.729Z,4.39
2018-12-31T09:37:33.617Z,4.37
2018-12-31T09:40:41.163Z,4.43
2018-12-31T09:43:49.318Z,4.44
2018-12-31T09:46:56.239Z,4.45
2018-12-31T09:50:03.115Z,4.47
2018-12-31T09:53:10.033Z,4.47
2018-12-31T09:56:16.924Z,4.48
2018-12-31T09:59:24.130Z,4.45
2018-12-31T10:02:31.189Z,4.50
2018-12-31T10:05:37.992Z,4.54
2018-12-31T10:08:49.222Z,4.55
2018-12-31T10:11:53.095Z,4.58
2018-12-31T10:15:00.296Z,4.59
2018-12-31T10:18:07.339Z,4.64
2018-12-31T10:21:14.082Z,4.67
2018-12-31T10:24:20.910Z,4.71
2018-12-31T10:27:27.905Z,4.76
2018-12-31T10:30:34.642Z,4.75
2018-12-31T10:34:09.159Z,4.79
2018-12-31T10:37:16.201Z,4.77
2018-12-31T10:40:23.185Z,4.76
2018-12-31T10:43:30.203Z,4.76
2018-12-31T10:46:37.157Z,4.80
2018-12-31T10:49:44.394Z,4.83
2018-12-31T10:52:51.368Z,4.85
2018-12-31T10:55:58.135Z,4.86
2018-12-31T10:59:04.935Z,4.91
2018-12-31T11:02:11.879Z,4.91
2018-12-31T11:05:21.352Z,4.97
2018-12-31T11:08:28.365Z,4.97
2018-12-31T11:11:36.162Z,4.99
2018-12-31T11:14:43.185Z,4.99
2018-12-31T11:17:49.917Z,4.94
2018-12-31T11:20:56.727Z,4.96
2018-12-31T11:24:03.432Z,4.96
2018-12-31T11:27:10.454Z,4.97
2018-12-31T11:30:18.380Z,4.98
2018-12-31T11:33:25.414Z,4.96
2018-12-31T11:36:32.583Z,4.97
2018-12-31T11:39:39.656Z,4.96
2018-12-31T11:42:46.591Z,4.96
2018-12-31T11:45:53.615Z,4.98
2018-12-31T11:49:00.562Z,4.98
2018-12-31T11:52:08.330Z,5.00
2018-12-31T11:55:28.131Z,4.98
2018-12-31T11:58:34.907Z,4.99
2018-12-31T12:01:41.657Z,5.00
2018-12-31T12:04:48.641Z,5.03
2018-12-31T12:07:55.576Z,5.06
2018-12-31T12:11:01.209Z,5.07
2018-12-31T12:14:09.533Z,5.06
2018-12-31T12:17:16.940Z,5.10
2018-12-31T12:20:22.529Z,5.07
2018-12-31T12:23:28.126Z,5.05
2018-12-31T12:26:42.071Z,5.10
2018-12-31T12:29:43.157Z,5.14
2018-12-31T12:32:51.531Z,5.12
2018-12-31T12:35:57.166Z,5.13
2018-12-31T12:39:02.737Z,5.13
2018-12-31T12:42:08.343Z,5.13
2018-12-31T12:45:13.978Z,5.14
2018-12-31T12:48:21.941Z,5.16
2018-12-31T12:51:27.483Z,5.17
2018-12-31T12:54:33.053Z,5.45
2018-12-31T12:57:38.580Z,5.35
2018-12-31T13:00:44.492Z,5.24
2018-12-31T13:03:50.034Z,5.33
2018-12-31T13:06:55.588Z,5.65
2018-12-31T13:10:01.872Z,5.56
2018-12-31T13:13:07.467Z,5.74
2018-12-31T13:16:13.197Z,5.57
2018-12-31T13:19:19.063Z,5.72
2018-12-31T13:22:24.632Z,5.54
2018-12-31T13:25:30.183Z,5.67
2018-12-31T13:28:35.783Z,5.71
2018-12-31T13:31:41.351Z,5.55
2018-12-31T13:34:47.280Z,5.60
2018-12-31T13:37:53.152Z,5.51
2018-12-31T13:40:58.882Z,5.57
2018-12-31T13:44:07.263Z,5.59
2018-12-31T13:47:13.691Z,5.58
2018-12-31T13:50:19.556Z,5.66
2018-12-31T13:53:26.292Z,5.68
2018-12-31T13:56:31.860Z,5.54
2018-12-31T13:59:37.477Z,5.59
2018-12-31T14:02:43.050Z,5.58
2018-12-31T14:05:48.758Z,5.63
2018-12-31T14:08:54.334Z,5.71
2018-12-31T14:11:59.901Z,5.75
2018-12-31T14:15:08.398Z,5.56
2018-12-31T14:18:14.015Z,5.57
2018-12-31T14:21:20.175Z,5.63
2018-12-31T14:24:25.706Z,5.73
2018-12-31T14:27:31.489Z,5.65
2018-12-31T14:30:37.317Z,5.60
2018-12-31T14:33:45.644Z,5.62
2018-12-31T14:36:51.469Z,5.57
2018-12-31T14:39:57.068Z,5.51
2018-12-31T14:43:02.616Z,5.45
2018-12-31T14:46:08.227Z,5.54
2018-12-31T14:49:13.806Z,5.74
2018-12-31T14:52:19.489Z,5.47
2018-12-31T14:55:26.022Z,5.51
2018-12-31T14:58:31.685Z,5.59
2018-12-31T15:01:37.397Z,5.52
2018-12-31T15:04:42.969Z,5.51
2018-12-31T15:08:12.822Z,5.41
2018-12-31T15:11:18.392Z,5.38
2018-12-31T15:14:38.991Z,5.36
2018-12-31T15:17:42.229Z,5.39
2018-12-31T15:20:48.318Z,5.33
2018-12-31T15:23:53.893Z,5.33
2018-12-31T15:26:59.700Z,5.36
2018-12-31T15:30:06.090Z,5.40
2018-12-31T15:33:14.165Z,5.44
2018-12-31T15:36:19.775Z,5.35
2018-12-31T15:39:26.048Z,5.35
2018-12-31T15:42:31.622Z,5.40
2018-12-31T15:45:38.797Z,5.34
2018-12-31T15:48:44.359Z,5.39
2018-12-31T15:51:49.958Z,5.38
2018-12-31T15:54:55.526Z,5.38
2018-12-31T15:58:01.081Z,5.35
2018-12-31T16:01:06.640Z,5.25
2018-12-31T16:04:12.238Z,5.20
2018-12-31T16:07:17.796Z,5.25
2018-12-31T16:10:24.057Z,5.23
2018-12-31T16:13:29.671Z,5.27
2018-12-31T16:16:37.334Z,5.25
2018-12-31T16:19:47.686Z,5.26
2018-12-31T16:22:53.554Z,5.23
2018-12-31T16:26:00.206Z,5.26
2018-12-31T16:29:07.150Z,5.24
2018-12-31T16:32:13.747Z,5.24
2018-12-31T16:35:19.280Z,5.23
2018-12-31T16:38:24.867Z,5.17
2018-12-31T16:41:30.811Z,5.22
2018-12-31T16:44:37.482Z,5.23
2018-12-31T16:47:43.087Z,5.15
2018-12-31T16:50:50.990Z,5.18
2018-12-31T16:53:58.979Z,5.23
2018-12-31T16:57:05.295Z,5.25
2018-12-31T17:00:10.879Z,5.19
2018-12-31T17:03:17.576Z,5.26
2018-12-31T17:06:23.122Z,5.26
2018-12-31T17:09:28.704Z,5.33
2018-12-31T17:12:34.239Z,5.17
2018-12-31T17:15:40.031Z,5.18
2018-12-31T17:18:45.637Z,5.18
2018-12-31T17:21:51.963Z,5.22
2018-12-31T17:24:57.936Z,5.21
2018-12-31T17:28:03.514Z,5.19
2018-12-31T17:31:09.669Z,5.22
2018-12-31T17:34:15.280Z,5.20
2018-12-31T17:37:20.902Z,5.23
2018-12-31T17:40:28.170Z,5.29
2018-12-31T17:43:33.970Z,5.25
2018-12-31T17:46:39.665Z,5.27
2018-12-31T17:49:45.219Z,5.28
2018-12-31T17:52:51.081Z,5.28
2018-12-31T17:55:56.640Z,5.29
2018-12-31T17:59:02.296Z,5.26
2018-12-31T18:02:08.188Z,5.30
2018-12-31T18:05:13.744Z,5.26
2018-12-31T18:08:19.450Z,5.24
2018-12-31T18:11:25.034Z,5.25
2018-12-31T18:14:30.595Z,5.26
2018-12-31T18:17:36.225Z,5.23
2018-12-31T18:20:42.034Z,5.25
2018-12-31T18:23:47.631Z,5.30
2018-12-31T18:26:53.188Z,5.30
2018-12-31T18:29:58.758Z,5.32
2018-12-31T18:33:04.319Z,5.34
2018-12-31T18:36:09.888Z,5.29
2018-12-31T18:39:16.675Z,5.27
2018-12-31T18:42:23.619Z,5.27
2018-12-31T18:45:29.490Z,5.27
2018-12-31T18:48:35.214Z,5.26
2018-12-31T18:51:40.938Z,5.27
2018-12-31T18:54:46.503Z,5.29
2018-12-31T18:57:52.511Z,5.31
2018-12-31T19:00:58.118Z,5.31
2018-12-31T19:04:03.927Z,5.32
2018-12-31T19:07:09.663Z,5.31
2018-12-31T19:10:15.208Z,5.33
2018-12-31T19:13:21.155Z,5.37
2018-12-31T19:16:26.950Z,5.37
2018-12-31T19:19:32.530Z,5.33
2018-12-31T19:22:38.111Z,5.37
2018-12-31T19:25:43.748Z,5.39
2018-12-31T19:28:49.270Z,5.37
2018-12-31T19:31:54.857Z,5.36
2018-12-31T19:35:00.419Z,5.43
2018-12-31T19:38:06.157Z,5.39
2018-12-31T19:41:11.860Z,5.46
2018-12-31T19:44:17.441Z,5.46
2018-12-31T19:47:23.475Z,5.39
2018-12-31T19:50:29.445Z,5.42
2018-12-31T19:53:34.972Z,5.49
2018-12-31T19:56:40.561Z,5.53
2018-12-31T19:59:46.393Z,5.48
2018-12-31T20:02:51.975Z,5.52
2018-12-31T20:05:58.846Z,5.62
2018-12-31T20:09:05.876Z,5.58
2018-12-31T20:12:11.424Z,5.56
2018-12-31T20:15:17.070Z,5.56
2018-12-31T20:18:24.189Z,5.58
2018-12-31T20:21:29.833Z,5.59
2018-12-31T20:24:35.369Z,5.58
2018-12-31T20:27:40.930Z,5.57
2018-12-31T20:30:46.474Z,5.56
2018-12-31T20:33:52.316Z,5.55
2018-12-31T20:36:59.155Z,5.56
2018-12-31T20:40:04.888Z,5.55
2018-12-31T20:43:11.012Z,5.57
2018-12-31T20:46:16.571Z,5.55
2018-12-31T20:49:22.500Z,5.59
2018-12-31T20:52:28.086Z,5.60
2018-12-31T20:55:33.700Z,5.59
2018-12-31T20:58:39.428Z,5.57
2018-12-31T21:01:45.923Z,5.55
2018-12-31T21:04:54.412Z,5.57
2018-12-31T21:08:00.007Z,5.55
2018-12-31T21:11:06.290Z,5.53
2018-12-31T21:14:11.876Z,5.57
2018-12-31T21:17:17.454Z,5.53
2018-12-31T21:20:23.034Z,5.50
2018-12-31T21:23:28.616Z,5.53
2018-12-31T21:26:34.382Z,5.56
2018-12-31T21:29:51.256Z,5.55
2018-12-31T21:32:58.406Z,5.57
2018-12-31T21:36:04.323Z,5.51
2018-12-31T21:39:10.281Z,5.54
2018-12-31T21:42:15.982Z,5.53
2018-12-31T21:45:21.608Z,5.53
2018-12-31T21:48:27.205Z,5.53
2018-12-31T21:51:33.018Z,5.49
2018-12-31T21:54:38.612Z,5.52
2018-12-31T21:57:44.281Z,5.49
2018-12-31T22:00:49.853Z,5.46
2018-12-31T22:03:56.713Z,5.47
2018-12-31T22:07:04.133Z,5.46
2018-12-31T22:10:11.223Z,5.44
2018-12-31T22:13:18.592Z,5.46
2018-12-31T22:16:25.547Z,5.49
2018-12-31T22:19:32.520Z,5.52
2018-12-31T22:22:38.174Z,5.58
2018-12-31T22:25:45.201Z,5.62
2018-12-31T22:28:52.198Z,5.64
2018-12-31T22:31:59.164Z,5.63
2018-12-31T22:35:06.188Z,5.63
2018-12-31T22:38:13.304Z,5.68
2018-12-31T22:41:20.300Z,5.68
2018-12-31T22:44:27.343Z,5.70
2018-12-31T22:47:34.307Z,5.70
2018-12-31T22:50:41.360Z,5.68
2018-12-31T22:53:48.654Z,5.73
2018-12-31T22:56:55.643Z,5.71
2018-12-31T23:00:02.624Z,5.74
2018-12-31T23:03:11.808Z,5.69
2018-12-31T23:06:19.816Z,5.74
2018-12-31T23:09:26.815Z,5.72
2018-12-31T23:12:33.657Z,5.74
2018-12-31T23:15:40.921Z,5.71
2018-12-31T23:18:47.924Z,5.71
2018-12-31T23:21:55.182Z,5.78
2018-12-31T23:25:01.986Z,5.76
2018-12-31T23:28:11.976Z,5.73
2018-12-31T23:31:19.255Z,5.74
2018-12-31T23:34:26.273Z,5.73
2018-12-31T23:37:33.018Z,5.76
2018-12-31T23:40:39.917Z,5.74
2018-12-31T23:43:46.940Z,5.74
2018-12-31T23:46:56.562Z,5.75
2018-12-31T23:50:03.694Z,5.80
2018-12-31T23:53:10.440Z,5.81
2018-12-31T23:56:18.098Z,5.79
2018-12-31T23:59:24.777Z,5.77
